sensor_id;sensor_type;location;lat;lon;timestamp;pressure;altitude;pressure_sealevel;temperature;humidity
35848;BME280;22332;51.954;20.118;2023-05-20T00:02:24;101240.15;;;13.26;86.99
35848;BME280;22332;51.954;20.118;2023-05-20T00:05:30;101237.17;;;13.23;87.04
35848;BME280;22332;51.954;20.118;2023-05-20T00:08:36;101229.04;;;13.24;87.11
35848;BME280;22332;51.954;20.118;2023-05-20T00:11:41;101223.38;;;13.29;87.08
35848;BME280;22332;51.954;20.118;2023-05-20T00:14:47;101222.07;;;13.32;87.06
35848;BME280;22332;51.954;20.118;2023-05-20T00:17:53;101219.99;;;13.35;86.98
35848;BME280;22332;51.954;20.118;2023-05-20T00:20:59;101219.21;;;13.38;87.12
35848;BME280;22332;51.954;20.118;2023-05-20T00:24:04;101221.03;;;13.33;87.00
35848;BME280;22332;51.954;20.118;2023-05-20T00:27:10;101222.67;;;13.29;87.12
35848;BME280;22332;51.954;20.118;2023-05-20T00:30:15;101222.17;;;13.27;87.19
35848;BME280;22332;51.954;20.118;2023-05-20T00:33:21;101216.70;;;13.26;87.31
35848;BME280;22332;51.954;20.118;2023-05-20T00:36:27;101219.23;;;13.30;87.25
35848;BME280;22332;51.954;20.118;2023-05-20T00:39:32;101212.44;;;13.33;87.06
35848;BME280;22332;51.954;20.118;2023-05-20T00:42:38;101211.10;;;13.31;87.08
35848;BME280;22332;51.954;20.118;2023-05-20T00:45:43;101213.18;;;13.31;87.23
35848;BME280;22332;51.954;20.118;2023-05-20T00:48:50;101213.13;;;13.34;87.19
35848;BME280;22332;51.954;20.118;2023-05-20T00:51:56;101215.63;;;13.34;87.29
35848;BME280;22332;51.954;20.118;2023-05-20T00:55:01;101225.33;;;13.35;87.15
35848;BME280;22332;51.954;20.118;2023-05-20T00:58:08;101227.64;;;13.38;87.16
35848;BME280;22332;51.954;20.118;2023-05-20T01:01:14;101227.04;;;13.32;87.36
35848;BME280;22332;51.954;20.118;2023-05-20T01:04:20;101227.34;;;13.29;87.31
35848;BME280;22332;51.954;20.118;2023-05-20T01:07:25;101228.39;;;13.31;87.47
35848;BME280;22332;51.954;20.118;2023-05-20T01:10:32;101228.81;;;13.35;87.36
35848;BME280;22332;51.954;20.118;2023-05-20T01:13:42;101225.20;;;13.37;87.44
35848;BME280;22332;51.954;20.118;2023-05-20T01:16:50;101225.56;;;13.41;87.43
35848;BME280;22332;51.954;20.118;2023-05-20T01:19:58;101223.33;;;13.43;87.49
35848;BME280;22332;51.954;20.118;2023-05-20T01:23:04;101219.84;;;13.44;87.46
35848;BME280;22332;51.954;20.118;2023-05-20T01:26:10;101219.31;;;13.44;87.61
35848;BME280;22332;51.954;20.118;2023-05-20T01:29:17;101223.24;;;13.37;87.59
35848;BME280;22332;51.954;20.118;2023-05-20T01:32:27;101222.99;;;13.28;87.82
35848;BME280;22332;51.954;20.118;2023-05-20T01:35:35;101221.65;;;13.25;87.92
35848;BME280;22332;51.954;20.118;2023-05-20T01:38:41;101220.16;;;13.22;87.88
35848;BME280;22332;51.954;20.118;2023-05-20T01:41:48;101222.45;;;13.18;88.07
35848;BME280;22332;51.954;20.118;2023-05-20T01:44:54;101222.30;;;13.20;88.02
35848;BME280;22332;51.954;20.118;2023-05-20T01:47:59;101214.41;;;13.26;88.10
35848;BME280;22332;51.954;20.118;2023-05-20T01:51:05;101211.25;;;13.31;88.12
35848;BME280;22332;51.954;20.118;2023-05-20T01:54:11;101208.50;;;13.35;87.83
35848;BME280;22332;51.954;20.118;2023-05-20T01:57:17;101209.39;;;13.33;87.93
35848;BME280;22332;51.954;20.118;2023-05-20T02:00:23;101207.36;;;13.34;87.93
35848;BME280;22332;51.954;20.118;2023-05-20T02:03:28;101207.58;;;13.36;87.99
35848;BME280;22332;51.954;20.118;2023-05-20T02:06:34;101203.73;;;13.35;87.87
35848;BME280;22332;51.954;20.118;2023-05-20T02:09:39;101203.94;;;13.37;87.99
35848;BME280;22332;51.954;20.118;2023-05-20T02:12:45;101206.30;;;13.40;88.04
35848;BME280;22332;51.954;20.118;2023-05-20T02:15:53;101210.80;;;13.42;87.95
35848;BME280;22332;51.954;20.118;2023-05-20T02:18:58;101212.52;;;13.42;88.05
35848;BME280;22332;51.954;20.118;2023-05-20T02:22:06;101214.15;;;13.44;87.91
35848;BME280;22332;51.954;20.118;2023-05-20T02:25:12;101209.27;;;13.45;88.04
35848;BME280;22332;51.954;20.118;2023-05-20T02:28:18;101210.46;;;13.47;87.97
35848;BME280;22332;51.954;20.118;2023-05-20T02:31:23;101208.30;;;13.47;87.82
35848;BME280;22332;51.954;20.118;2023-05-20T02:34:29;101206.96;;;13.46;87.94
35848;BME280;22332;51.954;20.118;2023-05-20T02:37:35;101206.20;;;13.43;87.94
35848;BME280;22332;51.954;20.118;2023-05-20T02:40:44;101205.03;;;13.44;88.01
35848;BME280;22332;51.954;20.118;2023-05-20T02:43:49;101206.40;;;13.46;88.16
35848;BME280;22332;51.954;20.118;2023-05-20T02:46:55;101208.46;;;13.51;88.08
35848;BME280;22332;51.954;20.118;2023-05-20T02:50:00;101208.52;;;13.54;88.08
35848;BME280;22332;51.954;20.118;2023-05-20T02:53:07;101207.38;;;13.54;88.01
35848;BME280;22332;51.954;20.118;2023-05-20T02:56:12;101208.55;;;13.54;88.20
35848;BME280;22332;51.954;20.118;2023-05-20T02:59:18;101212.51;;;13.55;88.09
35848;BME280;22332;51.954;20.118;2023-05-20T03:02:23;101209.11;;;13.55;88.12
35848;BME280;22332;51.954;20.118;2023-05-20T03:05:29;101212.94;;;13.58;88.19
35848;BME280;22332;51.954;20.118;2023-05-20T03:08:37;101212.85;;;13.61;88.16
35848;BME280;22332;51.954;20.118;2023-05-20T03:11:42;101213.95;;;13.61;88.19
35848;BME280;22332;51.954;20.118;2023-05-20T03:14:48;101215.09;;;13.56;88.20
35848;BME280;22332;51.954;20.118;2023-05-20T03:17:58;101219.74;;;13.54;88.22
35848;BME280;22332;51.954;20.118;2023-05-20T03:21:04;101219.29;;;13.55;88.39
35848;BME280;22332;51.954;20.118;2023-05-20T03:24:09;101218.73;;;13.59;88.22
35848;BME280;22332;51.954;20.118;2023-05-20T03:27:15;101217.73;;;13.62;88.18
35848;BME280;22332;51.954;20.118;2023-05-20T03:30:21;101217.83;;;13.60;88.31
35848;BME280;22332;51.954;20.118;2023-05-20T03:33:26;101217.54;;;13.57;88.49
35848;BME280;22332;51.954;20.118;2023-05-20T03:36:32;101217.22;;;13.57;88.55
35848;BME280;22332;51.954;20.118;2023-05-20T03:39:38;101213.20;;;13.59;88.69
35848;BME280;22332;51.954;20.118;2023-05-20T03:42:43;101215.46;;;13.63;88.80
35848;BME280;22332;51.954;20.118;2023-05-20T03:45:51;101220.08;;;13.67;88.76
35848;BME280;22332;51.954;20.118;2023-05-20T03:48:56;101223.73;;;13.65;88.73
35848;BME280;22332;51.954;20.118;2023-05-20T03:52:02;101225.83;;;13.64;88.85
35848;BME280;22332;51.954;20.118;2023-05-20T03:55:08;101228.02;;;13.70;88.96
35848;BME280;22332;51.954;20.118;2023-05-20T03:58:14;101224.20;;;13.79;88.77
35848;BME280;22332;51.954;20.118;2023-05-20T04:01:20;101221.98;;;13.83;88.95
35848;BME280;22332;51.954;20.118;2023-05-20T04:04:29;101223.30;;;13.86;88.96
35848;BME280;22332;51.954;20.118;2023-05-20T04:07:35;101226.02;;;13.87;89.01
35848;BME280;22332;51.954;20.118;2023-05-20T04:10:42;101222.79;;;13.91;89.03
35848;BME280;22332;51.954;20.118;2023-05-20T04:13:49;101224.67;;;13.96;89.08
35848;BME280;22332;51.954;20.118;2023-05-20T04:16:54;101220.83;;;14.00;89.15
35848;BME280;22332;51.954;20.118;2023-05-20T04:20:01;101224.40;;;13.98;89.33
35848;BME280;22332;51.954;20.118;2023-05-20T04:23:09;101223.14;;;14.02;89.43
35848;BME280;22332;51.954;20.118;2023-05-20T04:26:14;101227.15;;;14.05;89.39
35848;BME280;22332;51.954;20.118;2023-05-20T04:29:20;101223.61;;;14.08;89.28
35848;BME280;22332;51.954;20.118;2023-05-20T04:32:26;101224.23;;;14.14;89.03
35848;BME280;22332;51.954;20.118;2023-05-20T04:35:32;101219.34;;;14.22;88.86
35848;BME280;22332;51.954;20.118;2023-05-20T04:38:41;101222.92;;;14.29;88.60
35848;BME280;22332;51.954;20.118;2023-05-20T04:41:48;101222.15;;;14.36;88.47
35848;BME280;22332;51.954;20.118;2023-05-20T04:44:58;101218.80;;;14.40;88.41
35848;BME280;22332;51.954;20.118;2023-05-20T04:48:06;101219.89;;;14.45;88.36
35848;BME280;22332;51.954;20.118;2023-05-20T04:51:13;101217.73;;;14.49;88.17
35848;BME280;22332;51.954;20.118;2023-05-20T04:54:19;101215.52;;;14.50;88.04
35848;BME280;22332;51.954;20.118;2023-05-20T04:57:25;101217.36;;;14.51;87.97
35848;BME280;22332;51.954;20.118;2023-05-20T05:00:30;101211.41;;;14.53;88.01
35848;BME280;22332;51.954;20.118;2023-05-20T05:03:36;101219.89;;;14.57;87.96
35848;BME280;22332;51.954;20.118;2023-05-20T05:06:42;101223.16;;;14.60;88.10
35848;BME280;22332;51.954;20.118;2023-05-20T05:09:48;101228.61;;;14.62;87.87
35848;BME280;22332;51.954;20.118;2023-05-20T05:12:53;101229.61;;;14.65;87.80
35848;BME280;22332;51.954;20.118;2023-05-20T05:16:00;101225.20;;;14.68;87.39
35848;BME280;22332;51.954;20.118;2023-05-20T05:19:07;101221.54;;;14.67;87.45
35848;BME280;22332;51.954;20.118;2023-05-20T05:22:14;101227.20;;;14.67;87.73
35848;BME280;22332;51.954;20.118;2023-05-20T05:25:20;101226.08;;;14.75;87.59
35848;BME280;22332;51.954;20.118;2023-05-20T05:28:26;101228.35;;;14.84;87.47
35848;BME280;22332;51.954;20.118;2023-05-20T05:31:32;101228.48;;;14.90;87.16
35848;BME280;22332;51.954;20.118;2023-05-20T05:34:37;101231.84;;;15.00;87.14
35848;BME280;22332;51.954;20.118;2023-05-20T05:37:43;101232.42;;;15.07;86.46
35848;BME280;22332;51.954;20.118;2023-05-20T05:40:49;101232.61;;;15.06;86.52
35848;BME280;22332;51.954;20.118;2023-05-20T05:43:55;101232.27;;;15.05;86.35
35848;BME280;22332;51.954;20.118;2023-05-20T05:47:00;101229.04;;;15.07;86.49
35848;BME280;22332;51.954;20.118;2023-05-20T05:50:07;101233.16;;;15.12;86.62
35848;BME280;22332;51.954;20.118;2023-05-20T05:53:13;101237.89;;;15.17;85.67
35848;BME280;22332;51.954;20.118;2023-05-20T05:56:23;101235.53;;;15.22;86.03
35848;BME280;22332;51.954;20.118;2023-05-20T05:59:29;101235.17;;;15.36;86.12
35848;BME280;22332;51.954;20.118;2023-05-20T06:02:35;101236.02;;;15.47;86.37
35848;BME280;22332;51.954;20.118;2023-05-20T06:05:41;101237.41;;;15.56;85.59
35848;BME280;22332;51.954;20.118;2023-05-20T06:08:50;101233.30;;;15.58;85.12
35848;BME280;22332;51.954;20.118;2023-05-20T06:11:56;101237.59;;;15.58;85.42
35848;BME280;22332;51.954;20.118;2023-05-20T06:15:01;101241.52;;;15.66;85.54
35848;BME280;22332;51.954;20.118;2023-05-20T06:18:07;101242.04;;;15.74;85.18
35848;BME280;22332;51.954;20.118;2023-05-20T06:21:14;101240.02;;;15.84;85.12
35848;BME280;22332;51.954;20.118;2023-05-20T06:24:21;101246.73;;;15.99;84.96
35848;BME280;22332;51.954;20.118;2023-05-20T06:27:26;101244.74;;;16.11;84.77
35848;BME280;22332;51.954;20.118;2023-05-20T06:30:32;101241.25;;;16.12;83.47
35848;BME280;22332;51.954;20.118;2023-05-20T06:33:38;101242.88;;;16.13;83.78
35848;BME280;22332;51.954;20.118;2023-05-20T06:36:47;101240.09;;;16.24;83.83
35848;BME280;22332;51.954;20.118;2023-05-20T06:39:53;101235.98;;;16.36;82.67
35848;BME280;22332;51.954;20.118;2023-05-20T06:43:00;101234.70;;;16.41;82.83
35848;BME280;22332;51.954;20.118;2023-05-20T06:46:25;101237.86;;;16.69;83.69
35848;BME280;22332;51.954;20.118;2023-05-20T06:49:39;101237.81;;;16.98;82.77
35848;BME280;22332;51.954;20.118;2023-05-20T06:52:45;101243.06;;;17.17;81.77
35848;BME280;22332;51.954;20.118;2023-05-20T06:55:51;101237.14;;;17.24;80.36
35848;BME280;22332;51.954;20.118;2023-05-20T06:58:58;101237.15;;;17.34;81.19
35848;BME280;22332;51.954;20.118;2023-05-20T07:02:05;101242.64;;;17.45;81.04
35848;BME280;22332;51.954;20.118;2023-05-20T07:05:12;101234.10;;;17.51;80.26
35848;BME280;22332;51.954;20.118;2023-05-20T07:08:17;101234.60;;;17.64;80.95
35848;BME280;22332;51.954;20.118;2023-05-20T07:11:23;101233.74;;;17.83;81.18
35848;BME280;22332;51.954;20.118;2023-05-20T07:14:29;101226.90;;;18.02;80.91
35848;BME280;22332;51.954;20.118;2023-05-20T07:17:34;101229.28;;;18.06;78.13
35848;BME280;22332;51.954;20.118;2023-05-20T07:20:43;101230.62;;;18.01;79.02
35848;BME280;22332;51.954;20.118;2023-05-20T07:24:05;101230.13;;;18.05;79.53
35848;BME280;22332;51.954;20.118;2023-05-20T07:27:11;101228.14;;;18.19;79.91
35848;BME280;22332;51.954;20.118;2023-05-20T07:30:16;101223.80;;;18.33;78.29
35848;BME280;22332;51.954;20.118;2023-05-20T07:33:30;101222.67;;;18.33;78.36
35848;BME280;22332;51.954;20.118;2023-05-20T07:36:39;101214.16;;;18.41;79.11
35848;BME280;22332;51.954;20.118;2023-05-20T07:39:45;101214.40;;;18.55;78.67
35848;BME280;22332;51.954;20.118;2023-05-20T07:42:51;101213.08;;;18.66;78.30
35848;BME280;22332;51.954;20.118;2023-05-20T07:45:57;101199.45;;;18.72;77.88
35848;BME280;22332;51.954;20.118;2023-05-20T07:49:03;101195.61;;;18.78;77.71
35848;BME280;22332;51.954;20.118;2023-05-20T07:52:09;101187.87;;;18.82;77.08
35848;BME280;22332;51.954;20.118;2023-05-20T07:55:14;101188.09;;;18.76;76.41
35848;BME280;22332;51.954;20.118;2023-05-20T07:58:22;101189.13;;;18.69;76.80
35848;BME280;22332;51.954;20.118;2023-05-20T08:01:28;101191.33;;;18.73;77.56
35848;BME280;22332;51.954;20.118;2023-05-20T08:04:36;101189.69;;;18.81;76.76
35848;BME280;22332;51.954;20.118;2023-05-20T08:07:41;101186.62;;;18.90;77.08
35848;BME280;22332;51.954;20.118;2023-05-20T08:10:49;101181.30;;;18.98;77.01
35848;BME280;22332;51.954;20.118;2023-05-20T08:13:55;101180.95;;;19.04;75.52
35848;BME280;22332;51.954;20.118;2023-05-20T08:17:02;101182.69;;;19.03;75.83
35848;BME280;22332;51.954;20.118;2023-05-20T08:20:09;101184.76;;;19.11;76.01
35848;BME280;22332;51.954;20.118;2023-05-20T08:23:16;101177.89;;;19.20;76.13
35848;BME280;22332;51.954;20.118;2023-05-20T08:26:21;101174.44;;;19.34;76.01
35848;BME280;22332;51.954;20.118;2023-05-20T08:29:28;101176.91;;;19.32;73.64
35848;BME280;22332;51.954;20.118;2023-05-20T08:32:35;101171.33;;;19.34;74.96
35848;BME280;22332;51.954;20.118;2023-05-20T08:35:41;101171.63;;;19.38;74.38
35848;BME280;22332;51.954;20.118;2023-05-20T08:38:46;101171.02;;;19.38;74.81
35848;BME280;22332;51.954;20.118;2023-05-20T08:41:52;101173.73;;;19.46;75.15
35848;BME280;22332;51.954;20.118;2023-05-20T08:44:58;101166.73;;;19.49;74.79
35848;BME280;22332;51.954;20.118;2023-05-20T08:48:07;101160.84;;;19.62;75.12
35848;BME280;22332;51.954;20.118;2023-05-20T08:51:14;101156.29;;;19.81;74.10
35848;BME280;22332;51.954;20.118;2023-05-20T08:54:23;101157.70;;;19.87;74.01
35848;BME280;22332;51.954;20.118;2023-05-20T08:57:30;101157.59;;;19.94;74.28
35848;BME280;22332;51.954;20.118;2023-05-20T09:00:37;101158.15;;;20.03;74.16
35848;BME280;22332;51.954;20.118;2023-05-20T09:03:42;101156.08;;;20.06;73.73
35848;BME280;22332;51.954;20.118;2023-05-20T09:06:49;101162.02;;;20.07;73.32
35848;BME280;22332;51.954;20.118;2023-05-20T09:09:55;101159.13;;;20.10;73.62
35848;BME280;22332;51.954;20.118;2023-05-20T09:13:03;101158.25;;;20.14;73.48
35848;BME280;22332;51.954;20.118;2023-05-20T09:16:10;101155.21;;;20.15;73.44
35848;BME280;22332;51.954;20.118;2023-05-20T09:19:15;101150.77;;;20.16;73.63
35848;BME280;22332;51.954;20.118;2023-05-20T09:22:24;101155.83;;;20.23;73.36
35848;BME280;22332;51.954;20.118;2023-05-20T09:25:30;101151.95;;;20.28;73.51
35848;BME280;22332;51.954;20.118;2023-05-20T09:28:36;101146.13;;;20.34;73.08
35848;BME280;22332;51.954;20.118;2023-05-20T09:31:42;101147.42;;;20.39;73.36
35848;BME280;22332;51.954;20.118;2023-05-20T09:34:48;101146.63;;;20.44;72.72
35848;BME280;22332;51.954;20.118;2023-05-20T09:37:55;101145.93;;;20.46;72.68
35848;BME280;22332;51.954;20.118;2023-05-20T09:41:01;101141.71;;;20.45;72.69
35848;BME280;22332;51.954;20.118;2023-05-20T09:44:08;101138.75;;;20.47;72.51
35848;BME280;22332;51.954;20.118;2023-05-20T09:47:15;101136.85;;;20.47;72.27
35848;BME280;22332;51.954;20.118;2023-05-20T09:50:22;101140.65;;;20.47;71.90
35848;BME280;22332;51.954;20.118;2023-05-20T09:53:28;101136.80;;;20.52;72.38
35848;BME280;22332;51.954;20.118;2023-05-20T09:56:34;101137.52;;;20.62;72.54
35848;BME280;22332;51.954;20.118;2023-05-20T09:59:41;101137.46;;;20.76;72.45
35848;BME280;22332;51.954;20.118;2023-05-20T10:02:49;101142.04;;;20.94;72.66
35848;BME280;22332;51.954;20.118;2023-05-20T10:06:04;101142.58;;;21.08;72.56
35848;BME280;22332;51.954;20.118;2023-05-20T10:09:28;101145.37;;;21.27;72.06
35848;BME280;22332;51.954;20.118;2023-05-20T10:12:42;101138.97;;;21.34;72.15
35848;BME280;22332;51.954;20.118;2023-05-20T10:16:02;101141.30;;;21.44;71.51
35848;BME280;22332;51.954;20.118;2023-05-20T10:19:13;101142.36;;;21.60;71.74
35848;BME280;22332;51.954;20.118;2023-05-20T10:22:28;101131.20;;;21.79;70.92
35848;BME280;22332;51.954;20.118;2023-05-20T10:25:34;101128.15;;;21.98;70.93
35848;BME280;22332;51.954;20.118;2023-05-20T10:28:41;101125.70;;;22.14;70.45
35848;BME280;22332;51.954;20.118;2023-05-20T10:31:49;101119.82;;;22.24;70.40
35848;BME280;22332;51.954;20.118;2023-05-20T10:34:59;101113.84;;;22.43;70.70
35848;BME280;22332;51.954;20.118;2023-05-20T10:38:10;101106.73;;;22.65;70.71
35848;BME280;22332;51.954;20.118;2023-05-20T10:41:22;101106.61;;;22.84;70.30
35848;BME280;22332;51.954;20.118;2023-05-20T10:44:38;101102.89;;;22.94;69.18
35848;BME280;22332;51.954;20.118;2023-05-20T10:47:54;101104.14;;;22.98;69.32
35848;BME280;22332;51.954;20.118;2023-05-20T10:51:01;101088.58;;;23.15;69.54
35848;BME280;22332;51.954;20.118;2023-05-20T10:54:09;101084.13;;;23.34;68.56
35848;BME280;22332;51.954;20.118;2023-05-20T10:57:15;101081.84;;;23.38;68.43
35848;BME280;22332;51.954;20.118;2023-05-20T11:00:21;101077.00;;;23.43;68.69
35848;BME280;22332;51.954;20.118;2023-05-20T11:03:27;101062.83;;;23.49;68.83
35848;BME280;22332;51.954;20.118;2023-05-20T11:06:33;101060.81;;;23.59;68.80
35848;BME280;22332;51.954;20.118;2023-05-20T11:09:47;101063.02;;;23.74;68.76
35848;BME280;22332;51.954;20.118;2023-05-20T11:12:54;101058.58;;;23.87;68.14
35848;BME280;22332;51.954;20.118;2023-05-20T11:16:01;101054.21;;;24.04;67.63
35848;BME280;22332;51.954;20.118;2023-05-20T11:19:09;101058.14;;;24.09;67.32
35848;BME280;22332;51.954;20.118;2023-05-20T11:22:18;101056.20;;;24.07;67.32
35848;BME280;22332;51.954;20.118;2023-05-20T11:25:24;101051.42;;;24.05;66.92
35848;BME280;22332;51.954;20.118;2023-05-20T11:28:31;101050.98;;;23.99;66.71
35848;BME280;22332;51.954;20.118;2023-05-20T11:31:39;101051.80;;;23.98;66.18
35848;BME280;22332;51.954;20.118;2023-05-20T11:34:44;101052.73;;;23.95;66.61
35848;BME280;22332;51.954;20.118;2023-05-20T11:37:56;101047.60;;;23.98;66.02
35848;BME280;22332;51.954;20.118;2023-05-20T11:41:02;101042.23;;;24.01;66.21
35848;BME280;22332;51.954;20.118;2023-05-20T11:44:10;101041.45;;;24.09;65.85
35848;BME280;22332;51.954;20.118;2023-05-20T11:47:23;101043.98;;;24.18;65.67
35848;BME280;22332;51.954;20.118;2023-05-20T11:50:34;101044.10;;;24.18;65.64
35848;BME280;22332;51.954;20.118;2023-05-20T11:53:42;101044.56;;;24.14;65.51
35848;BME280;22332;51.954;20.118;2023-05-20T11:56:54;101040.88;;;24.21;65.62
35848;BME280;22332;51.954;20.118;2023-05-20T12:00:00;101040.45;;;24.35;65.61
35848;BME280;22332;51.954;20.118;2023-05-20T12:03:05;101037.88;;;24.49;64.44
35848;BME280;22332;51.954;20.118;2023-05-20T12:06:13;101040.27;;;24.67;63.64
35848;BME280;22332;51.954;20.118;2023-05-20T12:09:18;101037.71;;;24.84;63.72
35848;BME280;22332;51.954;20.118;2023-05-20T12:12:24;101030.37;;;24.93;63.38
35848;BME280;22332;51.954;20.118;2023-05-20T12:15:30;101029.27;;;24.98;62.61
35848;BME280;22332;51.954;20.118;2023-05-20T12:18:35;101029.89;;;25.01;62.55
35848;BME280;22332;51.954;20.118;2023-05-20T12:21:41;101024.14;;;25.01;62.49
35848;BME280;22332;51.954;20.118;2023-05-20T12:24:46;101026.77;;;24.99;61.86
35848;BME280;22332;51.954;20.118;2023-05-20T12:27:51;101027.94;;;24.93;61.70
35848;BME280;22332;51.954;20.118;2023-05-20T12:30:57;101025.48;;;24.95;62.07
35848;BME280;22332;51.954;20.118;2023-05-20T12:34:03;101028.66;;;24.99;61.99
35848;BME280;22332;51.954;20.118;2023-05-20T12:37:08;101031.89;;;25.02;61.37
35848;BME280;22332;51.954;20.118;2023-05-20T12:40:14;101027.06;;;25.03;61.28
35848;BME280;22332;51.954;20.118;2023-05-20T12:43:20;101023.98;;;24.98;60.65
35848;BME280;22332;51.954;20.118;2023-05-20T12:46:25;101018.54;;;24.99;61.02
35848;BME280;22332;51.954;20.118;2023-05-20T12:49:31;101005.95;;;25.08;60.93
35848;BME280;22332;51.954;20.118;2023-05-20T12:52:36;101000.07;;;25.17;61.06
35848;BME280;22332;51.954;20.118;2023-05-20T12:55:42;100999.73;;;25.25;60.69
35848;BME280;22332;51.954;20.118;2023-05-20T12:58:47;100999.92;;;25.09;59.83
35848;BME280;22332;51.954;20.118;2023-05-20T13:01:53;100998.58;;;24.84;59.47
35848;BME280;22332;51.954;20.118;2023-05-20T13:04:58;100992.00;;;24.66;59.51
35848;BME280;22332;51.954;20.118;2023-05-20T13:08:04;100987.91;;;24.58;59.84
35848;BME280;22332;51.954;20.118;2023-05-20T13:11:12;100975.02;;;24.58;59.49
35848;BME280;22332;51.954;20.118;2023-05-20T13:14:17;100970.23;;;24.60;59.70
35848;BME280;22332;51.954;20.118;2023-05-20T13:17:23;100972.69;;;24.66;59.54
35848;BME280;22332;51.954;20.118;2023-05-20T13:20:28;100967.34;;;24.68;59.42
35848;BME280;22332;51.954;20.118;2023-05-20T13:23:34;100970.22;;;24.75;59.27
35848;BME280;22332;51.954;20.118;2023-05-20T13:26:40;100967.52;;;24.79;59.13
35848;BME280;22332;51.954;20.118;2023-05-20T13:29:45;100966.35;;;24.79;58.76
35848;BME280;22332;51.954;20.118;2023-05-20T13:32:51;100966.02;;;24.78;58.99
35848;BME280;22332;51.954;20.118;2023-05-20T13:35:57;100965.03;;;24.87;58.60
35848;BME280;22332;51.954;20.118;2023-05-20T13:39:02;100962.67;;;24.93;58.50
35848;BME280;22332;51.954;20.118;2023-05-20T13:42:08;100955.67;;;24.98;58.34
35848;BME280;22332;51.954;20.118;2023-05-20T13:45:13;100948.94;;;25.08;57.59
35848;BME280;22332;51.954;20.118;2023-05-20T13:48:19;100953.52;;;25.04;56.91
35848;BME280;22332;51.954;20.118;2023-05-20T13:51:25;100954.16;;;25.01;57.11
35848;BME280;22332;51.954;20.118;2023-05-20T13:54:30;100942.01;;;25.02;56.61
35848;BME280;22332;51.954;20.118;2023-05-20T13:57:36;100942.00;;;25.06;56.38
35848;BME280;22332;51.954;20.118;2023-05-20T14:00:41;100942.70;;;25.12;56.39
35848;BME280;22332;51.954;20.118;2023-05-20T14:03:47;100937.77;;;25.25;56.55
35848;BME280;22332;51.954;20.118;2023-05-20T14:06:52;100926.63;;;25.42;56.19
35848;BME280;22332;51.954;20.118;2023-05-20T14:09:58;100933.36;;;25.54;55.71
35848;BME280;22332;51.954;20.118;2023-05-20T14:13:04;100933.04;;;25.56;55.27
35848;BME280;22332;51.954;20.118;2023-05-20T14:16:09;100929.15;;;25.55;54.97
35848;BME280;22332;51.954;20.118;2023-05-20T14:19:15;100920.97;;;25.47;55.15
35848;BME280;22332;51.954;20.118;2023-05-20T14:22:20;100915.21;;;25.33;54.86
35848;BME280;22332;51.954;20.118;2023-05-20T14:25:26;100916.88;;;25.17;55.00
35848;BME280;22332;51.954;20.118;2023-05-20T14:28:32;100920.75;;;25.05;54.23
35848;BME280;22332;51.954;20.118;2023-05-20T14:31:38;100916.50;;;25.00;54.62
35848;BME280;22332;51.954;20.118;2023-05-20T14:34:43;100916.56;;;24.96;54.77
35848;BME280;22332;51.954;20.118;2023-05-20T14:37:49;100911.65;;;24.89;54.71
35848;BME280;22332;51.954;20.118;2023-05-20T14:40:54;100906.39;;;24.81;54.39
35848;BME280;22332;51.954;20.118;2023-05-20T14:44:00;100903.88;;;24.73;54.52
35848;BME280;22332;51.954;20.118;2023-05-20T14:47:05;100908.60;;;24.65;54.45
35848;BME280;22332;51.954;20.118;2023-05-20T14:50:11;100904.97;;;24.56;54.89
35848;BME280;22332;51.954;20.118;2023-05-20T14:53:16;100910.63;;;24.54;54.82
35848;BME280;22332;51.954;20.118;2023-05-20T14:56:22;100908.92;;;24.53;54.20
35848;BME280;22332;51.954;20.118;2023-05-20T14:59:28;100912.51;;;24.46;54.14
35848;BME280;22332;51.954;20.118;2023-05-20T15:02:33;100913.66;;;24.36;54.23
35848;BME280;22332;51.954;20.118;2023-05-20T15:05:39;100913.00;;;24.26;54.43
35848;BME280;22332;51.954;20.118;2023-05-20T15:08:45;100914.38;;;24.19;54.66
35848;BME280;22332;51.954;20.118;2023-05-20T15:11:50;100913.41;;;24.12;54.50
35848;BME280;22332;51.954;20.118;2023-05-20T15:14:56;100916.29;;;24.02;54.52
35848;BME280;22332;51.954;20.118;2023-05-20T15:18:01;100910.94;;;23.95;54.30
35848;BME280;22332;51.954;20.118;2023-05-20T15:21:07;100904.92;;;23.90;54.05
35848;BME280;22332;51.954;20.118;2023-05-20T15:24:12;100900.98;;;23.85;53.96
35848;BME280;22332;51.954;20.118;2023-05-20T15:27:18;100897.35;;;23.80;53.92
35848;BME280;22332;51.954;20.118;2023-05-20T15:30:24;100897.27;;;23.77;54.06
35848;BME280;22332;51.954;20.118;2023-05-20T15:33:30;100893.33;;;23.73;54.00
35848;BME280;22332;51.954;20.118;2023-05-20T15:36:35;100888.58;;;23.69;53.96
35848;BME280;22332;51.954;20.118;2023-05-20T15:39:41;100885.45;;;23.63;53.99
35848;BME280;22332;51.954;20.118;2023-05-20T15:42:48;100883.38;;;23.58;53.65
35848;BME280;22332;51.954;20.118;2023-05-20T15:45:57;100876.00;;;23.50;54.03
35848;BME280;22332;51.954;20.118;2023-05-20T15:49:02;100874.09;;;23.45;54.21
35848;BME280;22332;51.954;20.118;2023-05-20T15:52:08;100878.16;;;23.36;54.33
35848;BME280;22332;51.954;20.118;2023-05-20T15:55:14;100883.88;;;23.26;54.60
35848;BME280;22332;51.954;20.118;2023-05-20T15:58:20;100884.80;;;23.11;55.58
35848;BME280;22332;51.954;20.118;2023-05-20T16:01:25;100885.51;;;22.94;56.42
35848;BME280;22332;51.954;20.118;2023-05-20T16:04:31;100884.47;;;22.80;57.15